Time;durP1;ratioP1;P1;durP2;ratioP2;P2;SDS_P1;SDS_P2;PMS_P1;PMS_P2;Temp;Humidity;BMP_temperature;BMP_pressure;BME280_temperature;BME280_humidity;BME280_pressure;Samples;Min_cycle;Max_cycle;Signal;HPM_P1;HPM_P2
2022/07/03 02:43:32;;;;;;;2.83;1.80;;;;;;;17.96;77.58;99777.84;1818793;79;23433;-41
2022/07/03 02:47:07;;;;;;;4.05;2.62;;;;;;;17.94;77.33;99781.11;1793031;80;21083;-42
2022/07/03 02:48:55;;;;;;;5.17;2.40;;;;;;;17.91;77.64;99788.83;1764172;80;20975;-41
2022/07/03 02:51:26;;;;;;;5.60;2.20;;;;;;;17.95;77.22;99784.12;1792801;80;21476;-41
2022/07/03 02:54:06;;;;;;;3.98;2.10;;;;;;;17.97;77.29;99788.37;1792313;80;20986;-41
2022/07/03 02:57:03;;;;;;;5.45;2.05;;;;;;;17.99;77.26;99779.78;1792885;80;20970;-42
2022/07/03 02:59:41;;;;;;;;;;;;;;;18.01;77.10;99778.33;1761004;81;21010;-41
2022/07/03 03:02:38;;;;;;;3.85;2.02;;;;;;;18.00;76.75;99777.46;1725733;83;20109;-41
2022/07/03 03:05:15;;;;;;;5.58;2.30;;;;;;;17.98;76.95;99773.23;1724882;83;21007;-42
2022/07/03 03:08:26;;;;;;;4.20;2.33;;;;;;;17.97;77.17;99774.20;1731733;83;21460;-41
2022/07/03 03:10:57;;;;;;;2.83;2.20;;;;;;;18.00;77.08;99776.62;1727917;82;21089;-42
2022/07/03 03:13:26;;;;;;;2.50;1.72;;;;;;;18.03;76.84;99775.91;1758033;81;20999;-42
2022/07/03 03:16:08;;;;;;;6.00;2.33;;;;;;;18.03;77.16;99776.39;1758290;81;21042;-41
2022/07/03 03:18:39;;;;;;;4.20;1.92;;;;;;;18.04;76.84;99768.75;1727570;81;20959;-41
2022/07/03 03:21:09;;;;;;;4.90;2.30;;;;;;;18.07;76.79;99765.02;1758344;81;20991;-41
2022/07/03 03:23:50;;;;;;;3.12;2.00;;;;;;;18.06;76.91;99765.48;1753424;81;21027;-41
2022/07/03 03:26:28;;;;;;;4.15;1.98;;;;;;;18.06;76.71;99760.66;1728865;81;20990;-42
2022/07/03 03:28:54;;;;;;;3.90;2.00;;;;;;;18.06;76.88;99764.64;1758387;81;21014;-41
2022/07/03 03:31:21;;;;;;;4.17;1.97;;;;;;;18.05;77.10;99765.14;1758535;81;21488;-42
2022/07/03 03:33:49;;;;;;;2.67;2.00;;;;;;;18.06;76.90;99768.14;1758336;81;21003;-41
2022/07/03 03:36:17;;;;;;;4.40;2.10;;;;;;;18.07;76.85;99767.19;1758279;81;20995;-41
2022/07/03 03:38:44;;;;;;;8.23;2.10;;;;;;;18.09;76.95;99764.41;1758316;81;20995;-42
2022/07/03 03:41:10;;;;;;;4.35;2.10;;;;;;;18.11;76.89;99762.47;1758274;81;21002;-41
2022/07/03 03:43:37;;;;;;;5.90;2.50;;;;;;;18.08;76.89;99761.38;1742461;82;21116;-41
2022/07/03 03:46:04;;;;;;;3.33;2.22;;;;;;;18.08;76.64;99760.05;1742415;82;21476;-42
2022/07/03 03:48:32;;;;;;;5.53;2.33;;;;;;;18.06;76.68;99763.31;1742481;82;20996;-42
2022/07/03 03:51:00;;;;;;;6.25;2.40;;;;;;;18.03;76.58;99764.42;1742412;82;20999;-41
2022/07/03 03:53:27;;;;;;;5.95;2.77;;;;;;;18.02;76.67;99769.36;1742245;82;21517;-41
2022/07/03 03:55:55;;;;;;;;;;;;;;;18.00;76.72;99780.13;1744448;82;20972;-41
2022/07/03 03:58:21;;;;;;;5.40;2.50;;;;;;;17.98;76.77;99768.76;1741463;82;20170;-42
2022/07/03 04:00:47;;;;;;;3.42;2.70;;;;;;;17.96;76.47;99771.19;1741817;82;20996;-42
2022/07/03 04:03:13;;;;;;;4.85;2.70;;;;;;;17.97;76.68;99768.41;1741752;82;20976;-41
2022/07/03 04:05:38;;;;;;;4.40;2.33;;;;;;;17.99;76.68;99766.47;1741766;82;21003;-41
2022/07/03 04:08:04;;;;;;;5.95;2.85;;;;;;;17.97;77.13;99763.09;1741790;82;21004;-41
2022/07/03 04:10:30;;;;;;;3.85;2.35;;;;;;;17.99;77.17;99770.47;1741808;82;21450;-41
2022/07/03 04:12:56;;;;;;;4.87;2.40;;;;;;;18.03;77.27;99769.74;1741788;82;20996;-41
2022/07/03 04:15:21;;;;;;;9.30;2.75;;;;;;;18.04;77.19;99760.77;1741817;82;20992;-42
2022/07/03 04:17:51;;;;;;;10.28;2.90;;;;;;;18.08;77.28;99763.58;1741779;82;21491;-41
2022/07/03 04:20:17;;;;;;;7.12;2.50;;;;;;;18.13;77.06;99753.88;1740977;82;21552;-41
2022/07/03 04:22:43;;;;;;;5.92;2.22;;;;;;;18.16;77.00;99757.64;1741734;82;21544;-41
2022/07/03 04:25:09;;;;;;;7.15;2.30;;;;;;;18.23;76.71;99757.52;1741785;82;20992;-41
2022/07/03 04:27:35;;;;;;;4.80;1.80;;;;;;;18.27;76.60;99760.28;1741779;82;20984;-41
2022/07/03 04:30:00;;;;;;;4.85;2.05;;;;;;;18.31;76.47;99759.06;1741721;82;21000;-42
2022/07/03 04:32:26;;;;;;;3.17;1.90;;;;;;;18.37;76.33;99759.05;1741743;82;21003;-41
2022/07/03 04:34:52;;;;;;;4.62;2.08;;;;;;;18.39;76.21;99752.66;1741740;82;21039;-42
2022/07/03 04:37:18;;;;;;;3.37;1.77;;;;;;;18.45;76.04;99759.30;1741807;82;21012;-41
2022/07/03 04:39:43;;;;;;;6.67;1.98;;;;;;;18.48;75.74;99759.06;1741756;82;21003;-41
2022/07/03 04:42:09;;;;;;;3.75;2.00;;;;;;;18.53;75.48;99756.00;1743991;82;21027;-41
2022/07/03 04:44:35;;;;;;;4.30;2.17;;;;;;;18.51;75.44;99757.95;1749664;82;20975;-42
2022/07/03 04:47:02;;;;;;;4.35;2.12;;;;;;;18.54;75.44;99760.38;1749702;82;20991;-41
2022/07/03 04:49:27;;;;;;;3.33;1.85;;;;;;;18.57;75.46;99756.11;1749671;82;21003;-42
2022/07/03 04:51:53;;;;;;;2.83;1.92;;;;;;;18.61;75.34;99757.58;1749757;82;21456;-41
2022/07/03 04:54:19;;;;;;;4.33;1.90;;;;;;;18.63;75.35;99763.62;1749781;82;20979;-41
2022/07/03 04:56:45;;;;;;;6.87;2.37;;;;;;;18.63;75.22;99763.62;1749693;82;21007;-42
2022/07/03 04:59:10;;;;;;;3.20;1.85;;;;;;;18.65;74.97;99755.51;1749645;82;20960;-41
2022/07/03 05:01:36;;;;;;;3.33;1.95;;;;;;;18.62;75.07;99759.25;1749701;82;20991;-42
2022/07/03 05:04:02;;;;;;;3.08;1.80;;;;;;;18.64;75.03;99759.13;1749721;82;21042;-42
2022/07/03 05:06:28;;;;;;;2.15;1.57;;;;;;;18.67;74.83;99756.22;1749696;82;21026;-42
2022/07/03 05:08:53;;;;;;;3.83;1.87;;;;;;;18.68;74.80;99757.44;1749672;82;21346;-42
2022/07/03 05:11:19;;;;;;;3.52;2.20;;;;;;;18.69;74.76;99752.45;1749679;82;21027;-42
2022/07/03 05:13:45;;;;;;;6.05;1.72;;;;;;;18.70;74.87;99756.82;1749632;82;21003;-41
2022/07/03 05:16:11;;;;;;;1.62;1.47;;;;;;;18.74;74.70;99766.25;1749681;82;20999;-42
2022/07/03 05:18:36;;;;;;;3.02;1.52;;;;;;;18.77;74.54;99771.33;1749825;82;20994;-42
2022/07/03 05:21:02;;;;;;;8.95;1.85;;;;;;;18.84;74.39;99769.52;1749641;82;21048;-42
2022/07/03 05:23:28;;;;;;;4.92;1.60;;;;;;;18.92;74.22;99773.25;1749663;82;20995;-42
2022/07/03 05:25:55;;;;;;;4.90;1.87;;;;;;;19.01;74.10;99772.98;1749736;82;21105;-41
2022/07/03 05:28:21;;;;;;;4.13;1.63;;;;;;;19.10;74.06;99766.88;1749853;82;21492;-41
2022/07/03 05:30:47;;;;;;;4.75;2.47;;;;;;;19.19;73.94;99765.24;1749664;82;21307;-42
2022/07/03 05:33:13;;;;;;;3.72;1.60;;;;;;;19.29;73.59;99765.34;1749720;82;21034;-42
2022/07/03 05:35:38;;;;;;;3.22;1.32;;;;;;;19.35;73.22;99763.48;1749633;82;21003;-42
2022/07/03 05:38:04;;;;;;;3.20;1.90;;;;;;;19.42;72.84;99767.81;1749662;82;21438;-42
2022/07/03 05:40:30;;;;;;;5.55;1.70;;;;;;;19.47;72.78;99772.27;1749699;82;21043;-42
2022/07/03 05:42:55;;;;;;;7.80;1.25;;;;;;;19.55;72.37;99775.98;1743450;82;21020;-42
2022/07/03 05:45:21;;;;;;;2.52;1.30;;;;;;;19.62;72.07;99763.45;1737691;82;20992;-42
2022/07/03 05:47:47;;;;;;;7.15;1.75;;;;;;;19.71;71.81;99758.66;1737491;82;21004;-42
2022/07/03 05:50:13;;;;;;;2.17;1.35;;;;;;;19.80;71.24;99758.39;1737499;82;21521;-41
2022/07/03 05:52:39;;;;;;;4.05;1.17;;;;;;;19.84;70.81;99759.80;1737593;82;21028;-42
2022/07/03 05:55:05;;;;;;;3.25;1.30;;;;;;;19.87;70.37;99755.55;1737552;82;20987;-42
2022/07/03 05:57:31;;;;;;;2.05;1.20;;;;;;;19.87;69.92;99757.72;1737855;82;20999;-41
2022/07/03 05:59:57;;;;;;;4.25;1.20;;;;;;;19.90;69.66;99755.25;1737497;82;21035;-42
2022/07/03 06:02:22;;;;;;;2.00;1.02;;;;;;;19.90;69.00;99754.79;1737457;82;20992;-42
2022/07/03 06:04:48;;;;;;;2.42;1.00;;;;;;;19.93;68.44;99749.16;1737477;82;20964;-42
2022/07/03 06:07:16;;;;;;;1.92;1.17;;;;;;;19.92;68.07;99747.49;1737487;82;20988;-41
2022/07/03 06:09:42;;;;;;;2.67;1.02;;;;;;;19.90;67.64;99749.45;1737360;82;21461;-42
2022/07/03 06:12:08;;;;;;;2.55;1.30;;;;;;;19.89;67.33;99746.91;1737420;82;21004;-41
2022/07/03 06:14:34;;;;;;;4.37;1.00;;;;;;;19.92;67.38;99752.83;1737755;82;21540;-42
2022/07/03 06:17:00;;;;;;;2.87;1.17;;;;;;;19.94;66.74;99750.86;1737534;82;21004;-42
2022/07/03 06:19:25;;;;;;;6.58;1.37;;;;;;;19.95;66.64;99743.70;1737561;82;21401;-42
2022/07/03 06:21:51;;;;;;;5.37;2.60;;;;;;;19.94;66.29;99744.69;1737444;82;21452;-42
2022/07/03 06:24:17;;;;;;;5.42;1.50;;;;;;;19.91;66.15;99739.11;1737582;82;21441;-42
2022/07/03 06:26:43;;;;;;;2.10;1.30;;;;;;;19.92;66.04;99738.64;1737453;82;21469;-42
2022/07/03 06:29:08;;;;;;;4.22;1.15;;;;;;;19.92;66.09;99749.33;1737547;82;21835;-42
2022/07/03 06:31:34;;;;;;;3.20;1.10;;;;;;;19.93;65.89;99746.99;1737515;82;21505;-42
2022/07/03 06:34:00;;;;;;;3.47;1.40;;;;;;;19.91;65.13;99745.78;1737583;82;21501;-42
2022/07/03 06:36:25;;;;;;;3.67;1.10;;;;;;;19.91;65.16;99747.63;1737480;82;21496;-42
2022/07/03 06:38:51;;;;;;;3.62;0.90;;;;;;;19.90;64.89;99741.91;1737499;82;21125;-42
2022/07/03 06:41:17;;;;;;;6.08;1.20;;;;;;;19.92;64.73;99743.48;1737390;82;20996;-42
2022/07/03 06:43:43;;;;;;;2.40;0.98;;;;;;;19.96;64.21;99740.56;1737502;82;21056;-42
2022/07/03 06:46:08;;;;;;;1.32;0.95;;;;;;;19.97;63.81;99738.23;1737528;82;21039;-42
2022/07/03 06:48:35;;;;;;;1.05;0.95;;;;;;;19.97;62.71;99732.39;1737507;82;21506;-46
2022/07/03 06:51:00;;;;;;;1.92;1.20;;;;;;;19.96;62.46;99737.39;1737454;82;21012;-42
2022/07/03 06:53:26;;;;;;;2.98;1.17;;;;;;;19.99;62.15;99741.61;1737425;82;20977;-42
2022/07/03 06:55:52;;;;;;;2.58;1.17;;;;;;;20.01;61.62;99740.51;1737388;82;20980;-42
2022/07/03 06:58:18;;;;;;;2.58;1.00;;;;;;;20.06;61.45;99732.08;1737446;82;20992;-42
2022/07/03 07:00:43;;;;;;;1.72;1.00;;;;;;;20.11;60.71;99729.85;1737418;82;21036;-42
2022/07/03 07:03:09;;;;;;;5.42;0.98;;;;;;;20.16;60.91;99736.14;1737442;82;21070;-42
2022/07/03 07:05:35;;;;;;;2.80;1.30;;;;;;;20.19;61.00;99730.00;1737497;82;21008;-42
2022/07/03 07:08:01;;;;;;;5.00;1.10;;;;;;;20.23;60.97;99738.59;1737462;82;21011;-42
2022/07/03 07:10:28;;;;;;;2.50;1.82;;;;;;;20.27;60.48;99728.84;1737438;82;21000;-42
2022/07/03 07:12:53;;;;;;;3.33;1.10;;;;;;;20.32;60.66;99722.61;1737495;82;20992;-42
2022/07/03 07:15:19;;;;;;;1.25;1.00;;;;;;;20.39;60.65;99717.58;1737454;82;21003;-42
2022/07/03 07:17:45;;;;;;;1.80;1.10;;;;;;;20.46;60.23;99711.17;1737451;82;21046;-42
2022/07/03 07:20:11;;;;;;;2.15;1.10;;;;;;;20.52;59.91;99709.30;1737452;82;21485;-42
2022/07/03 07:22:37;;;;;;;2.72;1.20;;;;;;;20.58;60.02;99711.41;1737469;82;21004;-43
2022/07/03 07:25:04;;;;;;;2.37;1.20;;;;;;;20.62;59.27;99708.84;1737275;82;21047;-42
2022/07/03 07:27:30;;;;;;;3.80;1.12;;;;;;;20.70;59.71;99710.33;1737451;82;20981;-42
2022/07/03 07:29:56;;;;;;;3.45;1.15;;;;;;;20.77;59.41;99699.07;1710167;82;21003;-42
2022/07/03 07:32:22;;;;;;;2.08;1.15;;;;;;;20.83;59.30;99695.82;1737540;82;20981;-42
2022/07/03 07:34:47;;;;;;;2.95;1.40;;;;;;;20.87;58.46;99695.92;1737542;82;21047;-42
2022/07/03 07:37:13;;;;;;;1.62;1.27;;;;;;;20.86;58.83;99696.89;1737520;82;21047;-42
2022/07/03 07:39:39;;;;;;;2.20;0.90;;;;;;;20.92;58.59;99694.14;1737577;82;21012;-42
2022/07/03 07:42:05;;;;;;;2.37;1.07;;;;;;;20.94;57.73;99693.03;1737500;82;21000;-42
2022/07/03 07:44:31;;;;;;;2.83;1.02;;;;;;;21.00;57.74;99688.44;1741404;82;21633;-43
2022/07/03 07:46:57;;;;;;;1.52;0.93;;;;;;;21.04;56.53;99689.00;1741732;82;21039;-43
2022/07/03 07:49:22;;;;;;;5.25;0.90;;;;;;;21.10;56.51;99681.73;1741736;82;21003;-43
2022/07/03 07:51:48;;;;;;;2.15;1.12;;;;;;;21.16;56.56;99685.70;1741723;82;21051;-43
2022/07/03 07:54:14;;;;;;;6.03;1.25;;;;;;;21.23;55.87;99679.63;1741662;82;20980;-43
2022/07/03 07:56:39;;;;;;;5.42;1.40;;;;;;;21.32;55.44;99681.06;1741770;82;20979;-42
2022/07/03 07:59:05;;;;;;;5.67;1.40;;;;;;;21.38;55.64;99681.84;1741773;82;21039;-42
2022/07/03 08:06:58;;;;;;;1.92;1.32;;;;;;;21.60;54.30;99684.69;1741837;82;20979;-43
2022/07/03 08:09:24;;;;;;;4.75;1.05;;;;;;;21.69;54.16;99674.44;1741276;82;21071;-43
2022/07/03 08:11:50;;;;;;;9.70;1.62;;;;;;;21.74;53.90;99672.17;1741702;82;21051;-42
2022/07/03 08:14:16;;;;;;;1.40;1.20;;;;;;;21.85;53.88;99675.16;1741809;82;21457;-42
2022/07/03 08:16:43;;;;;;;2.60;0.90;;;;;;;21.91;53.68;99675.06;1741740;82;21448;-42
2022/07/03 08:19:09;;;;;;;1.40;1.00;;;;;;;22.00;51.95;99675.50;1741805;82;21055;-43
2022/07/03 08:21:34;;;;;;;1.22;0.93;;;;;;;22.04;52.59;99671.02;1741783;82;21473;-43
2022/07/03 08:24:00;;;;;;;4.67;1.10;;;;;;;22.10;52.73;99668.23;1741687;82;21501;-43
2022/07/03 08:26:26;;;;;;;4.45;0.93;;;;;;;22.25;52.74;99667.25;1741755;82;20967;-42
2022/07/03 08:28:52;;;;;;;3.05;1.30;;;;;;;22.41;51.75;99667.94;1741684;82;20999;-42
2022/07/03 08:31:18;;;;;;;1.20;0.85;;;;;;;22.58;51.48;99668.45;1741734;82;21015;-43
2022/07/03 08:33:48;;;;;;;1.45;0.90;;;;;;;22.67;51.11;99663.19;1741587;82;21080;-42
2022/07/03 08:36:14;;;;;;;1.15;1.00;;;;;;;22.56;47.15;99672.30;1741552;82;20979;-42
2022/07/03 08:38:42;;;;;;;4.95;1.10;;;;;;;22.47;49.92;99656.63;1741771;82;21490;-42
2022/07/03 08:41:09;;;;;;;2.87;0.80;;;;;;;22.39;49.61;99654.72;1741687;82;21528;-42
2022/07/03 08:43:36;;;;;;;2.77;1.95;;;;;;;22.61;49.65;99655.23;1741692;82;21048;-43
2022/07/03 08:46:03;;;;;;;2.70;1.20;;;;;;;22.82;49.29;99658.95;1741754;82;20968;-42
2022/07/03 08:48:30;;;;;;;3.80;1.60;;;;;;;23.06;48.31;99650.78;1741890;82;21020;-42
2022/07/03 08:50:57;;;;;;;3.92;1.35;;;;;;;23.26;48.33;99656.28;1741794;82;21000;-42
2022/07/03 08:53:23;;;;;;;;;;;;;;;23.51;47.37;99657.78;1744341;82;21484;-43
2022/07/03 08:55:49;;;;;;;2.47;1.10;;;;;;;23.55;46.98;99659.14;1741740;82;20106;-41
2022/07/03 08:58:15;;;;;;;2.92;1.27;;;;;;;23.74;47.50;99658.08;1741744;82;21505;-42
2022/07/03 09:00:42;;;;;;;4.60;1.42;;;;;;;24.02;47.22;99656.02;1741636;82;21501;-42
2022/07/03 09:03:14;;;;;;;4.55;1.20;;;;;;;24.29;46.74;99655.44;1741848;82;21501;-43
2022/07/03 09:05:40;;;;;;;2.75;1.00;;;;;;;24.24;46.00;99660.45;1741669;82;21437;-42
2022/07/03 09:08:08;;;;;;;4.57;1.00;;;;;;;24.41;45.67;99655.95;1741890;82;21047;-43
2022/07/03 09:10:34;;;;;;;4.25;1.25;;;;;;;24.64;44.29;99652.98;1741651;82;20960;-43
2022/07/03 09:13:00;;;;;;;3.17;1.05;;;;;;;24.91;44.82;99646.43;1741696;82;20995;-42
2022/07/03 09:15:26;;;;;;;1.37;0.90;;;;;;;25.16;44.05;99650.45;1741562;82;21489;-43
2022/07/03 09:18:04;;;;;;;2.40;1.10;;;;;;;25.42;43.66;99648.91;1741662;82;21063;-43
2022/07/03 09:20:41;;;;;;;3.58;1.05;;;;;;;25.55;43.73;99648.88;1741029;82;20991;-42
2022/07/03 09:23:13;;;;;;;2.35;0.80;;;;;;;25.45;42.82;99650.41;1741576;82;21040;-42
2022/07/03 09:26:01;;;;;;;1.10;0.80;;;;;;;25.20;43.06;99646.41;1741725;82;21007;-42
2022/07/03 09:28:55;;;;;;;5.55;1.35;;;;;;;25.46;40.88;99642.67;1741737;82;21051;-42
2022/07/03 09:31:24;;;;;;;4.75;1.20;;;;;;;25.78;42.11;99647.63;1739719;82;21497;-42
2022/07/03 09:34:05;;;;;;;2.58;0.95;;;;;;;25.62;41.83;99645.31;1741860;82;20976;-42
2022/07/03 09:36:49;;;;;;;2.98;1.20;;;;;;;25.38;41.89;99641.37;1741692;82;21023;-42
2022/07/03 09:39:25;;;;;;;2.47;0.80;;;;;;;25.44;42.56;99642.84;1741596;82;21034;-43
2022/07/03 09:42:06;;;;;;;3.20;1.00;;;;;;;25.43;42.30;99640.32;1741886;82;21016;-43
2022/07/03 09:44:42;;;;;;;5.87;1.70;;;;;;;25.74;42.32;99641.75;1741540;82;21493;-43
2022/07/03 09:47:18;;;;;;;2.25;0.88;;;;;;;26.44;40.84;99640.05;1741695;82;21490;-42
2022/07/03 09:50:04;;;;;;;1.05;0.80;;;;;;;27.13;39.50;99635.95;1741811;82;21000;-45
2022/07/03 09:52:47;;;;;;;4.07;1.07;;;;;;;28.64;35.72;99628.34;1741813;82;21051;-44
2022/07/03 09:55:18;;;;;;;2.15;1.25;;;;;;;28.64;35.72;99628.34;1741625;82;20984;-42
2022/07/03 09:57:56;;;;;;;1.30;0.82;;;;;;;29.18;36.91;99628.30;1741738;82;20999;-44
2022/07/03 10:00:25;;;;;;;5.78;0.70;;;;;;;29.59;35.90;99629.37;1741615;82;21115;-46
2022/07/03 10:02:56;;;;;;;3.02;0.93;;;;;;;30.07;33.88;99625.34;1741138;82;20988;-45
2022/07/03 10:05:30;;;;;;;1.30;0.95;;;;;;;30.58;34.10;99621.27;1741556;82;21540;-43
2022/07/03 10:08:06;;;;;;;3.87;0.85;;;;;;;30.24;32.77;99621.20;1741609;82;21481;-43
2022/07/03 10:10:35;;;;;;;2.30;1.00;;;;;;;30.44;33.06;99627.23;1741894;82;20976;-42
2022/07/03 10:13:02;;;;;;;2.15;1.07;;;;;;;30.44;32.35;99627.23;1740289;82;21000;-42
2022/07/03 10:15:31;;;;;;;0.85;0.85;;;;;;;30.31;32.07;99625.29;1741632;82;21497;-43
2022/07/03 10:17:59;;;;;;;2.75;0.78;;;;;;;30.08;32.30;99615.32;1741583;82;20996;-43
2022/07/03 10:20:38;;;;;;;3.22;0.90;;;;;;;30.01;31.62;99607.98;1741668;82;21423;-42
2022/07/03 10:23:04;;;;;;;2.10;0.65;;;;;;;30.45;32.12;99610.41;1741469;82;21460;-42
2022/07/03 10:25:33;;;;;;;2.50;1.20;;;;;;;30.55;31.65;99613.56;1741771;82;21031;-42
2022/07/03 10:28:01;;;;;;;2.30;0.50;;;;;;;30.93;30.89;99608.38;1741582;82;21006;-43
2022/07/03 10:30:28;;;;;;;3.90;0.70;;;;;;;31.32;30.23;99599.84;1741547;82;20976;-42
2022/07/03 10:32:55;;;;;;;4.70;1.10;;;;;;;31.69;30.33;99596.12;1741638;82;21046;-43
2022/07/03 10:35:27;;;;;;;1.30;0.80;;;;;;;31.86;29.55;99605.14;1741518;82;20980;-43
2022/07/03 10:38:04;;;;;;;0.68;0.68;;;;;;;32.21;29.65;99600.69;1741668;82;20976;-43
2022/07/03 10:46:23;;;;;;;1.47;0.70;;;;;;;33.21;27.84;99583.58;1749669;82;20999;-43
2022/07/03 10:49:10;;;;;;;1.15;0.60;;;;;;;33.19;28.00;99591.16;1749520;82;20976;-43
2022/07/03 10:51:53;;;;;;;1.42;0.80;;;;;;;33.07;27.45;99585.56;1749533;82;21215;-42
2022/07/03 10:54:36;;;;;;;1.45;0.68;;;;;;;32.88;27.24;99582.81;1749500;82;21055;-44
2022/07/03 10:57:15;;;;;;;1.72;0.70;;;;;;;32.72;27.50;99573.84;1749524;82;21007;-41
2022/07/03 10:59:47;;;;;;;0.80;0.70;;;;;;;32.38;27.46;99577.86;1749467;82;20975;-42
2022/07/03 11:02:40;;;;;;;4.22;0.88;;;;;;;32.38;27.84;99566.97;1749583;82;21635;-42
2022/07/03 11:05:09;;;;;;;1.62;0.85;;;;;;;32.63;27.66;99568.38;1748670;82;20999;-42
2022/07/03 11:07:44;;;;;;;1.22;0.68;;;;;;;32.83;27.17;99561.39;1749643;82;21058;-42
2022/07/03 11:10:16;;;;;;;1.62;0.95;;;;;;;33.09;26.15;99558.92;1749654;82;21527;-45
2022/07/03 11:13:06;;;;;;;1.35;0.70;;;;;;;33.43;27.26;99556.70;1749644;82;21449;-41
2022/07/03 11:15:42;;;;;;;3.83;1.05;;;;;;;33.88;26.34;99555.54;1749878;82;20968;-41
2022/07/03 11:18:21;;;;;;;2.10;0.72;;;;;;;34.23;24.92;99554.30;1749638;82;20979;-42
2022/07/03 11:20:53;;;;;;;1.52;0.70;;;;;;;34.57;25.26;99550.52;1720227;82;20999;-41
2022/07/03 11:23:36;;;;;;;0.70;0.70;;;;;;;35.14;22.71;99558.95;1749674;82;21127;-43
2022/07/03 11:26:13;;;;;;;1.45;0.90;;;;;;;35.07;23.08;99554.15;1749687;82;20975;-42
2022/07/03 11:28:44;;;;;;;1.85;1.30;;;;;;;35.27;23.88;99546.14;1748287;82;21043;-41
2022/07/03 11:31:16;;;;;;;1.82;0.60;;;;;;;34.80;23.71;99554.66;1749654;82;21519;-42
2022/07/03 11:33:58;;;;;;;2.02;0.85;;;;;;;34.84;24.08;99548.19;1749724;82;22009;-41
2022/07/03 11:36:27;;;;;;;2.95;0.80;;;;;;;34.94;24.07;99543.48;1749858;82;21043;-42
2022/07/03 11:39:02;;;;;;;6.47;1.75;;;;;;;34.82;24.23;99544.86;1749620;82;21007;-41
2022/07/03 11:41:38;;;;;;;3.15;0.93;;;;;;;34.43;23.91;99543.89;1749597;82;21038;-44
2022/07/03 11:44:07;;;;;;;1.42;0.70;;;;;;;34.55;24.18;99541.19;1748951;82;20988;-42
2022/07/03 11:46:38;;;;;;;2.50;0.93;;;;;;;34.89;23.86;99539.27;1749716;82;21011;-41
2022/07/03 11:49:13;;;;;;;4.17;1.22;;;;;;;34.38;23.33;99539.70;1749810;82;20980;-42
2022/07/03 11:51:44;;;;;;;0.90;0.80;;;;;;;34.06;23.99;99547.30;1749967;82;21003;-42
2022/07/03 11:54:10;;;;;;;3.15;1.25;;;;;;;34.07;24.30;99540.76;1737944;82;21595;-40
2022/07/03 11:56:38;;;;;;;1.35;0.90;;;;;;;33.86;24.76;99542.13;1749812;82;21003;-43
2022/07/03 11:59:06;;;;;;;12.80;1.60;;;;;;;33.79;23.96;99544.94;1749633;82;21501;-43
2022/07/03 12:01:37;;;;;;;1.32;0.85;;;;;;;33.70;23.52;99539.51;1749860;82;20975;-41
2022/07/03 12:04:10;;;;;;;1.87;0.60;;;;;;;33.50;24.38;99532.09;1748791;82;20980;-44
2022/07/03 12:06:52;;;;;;;3.10;0.90;;;;;;;33.18;24.47;99529.02;1749712;82;20964;-42
2022/07/03 12:09:28;;;;;;;3.37;1.25;;;;;;;33.30;25.45;99531.80;1748177;82;20999;-41
2022/07/03 12:12:00;;;;;;;;;;;;;;;33.09;24.92;99525.72;1752280;82;21023;-43
2022/07/03 12:14:51;;;;;;;1.30;0.80;;;;;;;33.21;25.18;99523.63;1749691;82;20131;-42
2022/07/03 12:17:22;;;;;;;1.07;0.70;;;;;;;33.12;24.69;99507.25;1749669;82;21042;-41
2022/07/03 12:19:54;;;;;;;0.98;0.90;;;;;;;32.69;25.21;99504.85;1747961;82;21055;-43
2022/07/03 12:22:37;;;;;;;1.90;0.90;;;;;;;32.41;25.35;99503.41;1749642;82;21039;-43
2022/07/03 12:25:09;;;;;;;1.17;0.80;;;;;;;32.32;26.34;99502.02;1749619;82;20999;-43
2022/07/03 12:27:42;;;;;;;1.30;1.10;;;;;;;32.27;25.83;99495.90;1749755;82;21007;-42
2022/07/03 12:30:11;;;;;;;1.75;1.07;;;;;;;31.83;25.92;99494.08;1749651;82;21072;-43
2022/07/03 12:32:38;;;;;;;3.67;1.17;;;;;;;31.48;26.43;99497.20;1749620;82;21058;-43
2022/07/03 12:35:05;;;;;;;1.12;0.70;;;;;;;31.43;26.44;99496.45;1749635;82;21042;-41
2022/07/03 12:37:40;;;;;;;0.75;0.72;;;;;;;31.45;26.46;99496.23;1749543;82;21088;-41
2022/07/03 12:40:09;;;;;;;6.58;0.82;;;;;;;31.37;26.71;99491.35;1749102;81;20979;-42
2022/07/03 12:42:48;;;;;;;2.20;0.95;;;;;;;31.39;26.51;99500.12;1749750;82;20979;-42
2022/07/03 12:45:17;;;;;;;4.42;1.00;;;;;;;31.33;26.87;99498.81;1744418;82;21071;-42
2022/07/03 12:47:44;;;;;;;8.68;4.40;;;;;;;31.20;26.94;99487.47;1741334;82;20992;-42
2022/07/03 12:50:10;;;;;;;0.90;0.60;;;;;;;30.90;26.89;99489.28;1741848;82;21509;-42
2022/07/03 12:52:57;;;;;;;2.60;1.65;;;;;;;30.91;27.27;99486.92;1741768;82;21148;-42
2022/07/03 12:55:26;;;;;;;1.42;1.05;;;;;;;30.79;27.98;99491.30;1741736;82;21492;-42
2022/07/03 13:01:02;;;;;;;4.10;0.80;;;;;;;30.80;28.25;99490.27;1741780;82;21035;-43
2022/07/03 13:03:31;;;;;;;2.45;1.02;;;;;;;30.74;28.12;99491.09;1741634;82;21023;-43
2022/07/03 13:05:57;;;;;;;2.17;1.00;;;;;;;30.30;28.28;99481.19;1741705;82;21505;-42
2022/07/03 13:08:23;;;;;;;3.50;1.23;;;;;;;29.99;28.60;99481.80;1741963;82;20968;-43
2022/07/03 13:10:59;;;;;;;1.23;1.00;;;;;;;29.99;29.37;99486.69;1741988;82;21476;-41
2022/07/03 13:13:26;;;;;;;1.45;0.72;;;;;;;30.00;28.84;99478.89;1741933;82;21011;-41
2022/07/03 13:15:52;;;;;;;2.77;0.82;;;;;;;29.81;29.39;99484.58;1741810;82;21465;-42
2022/07/03 13:18:18;;;;;;;0.75;0.75;;;;;;;29.76;29.11;99478.96;1741790;82;20964;-42
2022/07/03 13:20:44;;;;;;;0.77;0.77;;;;;;;29.50;29.75;99473.43;1741908;82;21006;-42
2022/07/03 13:23:10;;;;;;;1.00;0.90;;;;;;;29.50;30.02;99476.14;1741819;82;21192;-41
2022/07/03 13:25:43;;;;;;;1.50;0.77;;;;;;;29.55;29.91;99469.59;1741868;82;21031;-42
2022/07/03 13:28:11;;;;;;;1.02;0.70;;;;;;;29.45;30.17;99468.11;1741560;82;20995;-43
2022/07/03 13:30:39;;;;;;;1.42;0.82;;;;;;;29.65;30.09;99468.16;1741655;82;20976;-42
2022/07/03 13:33:06;;;;;;;2.22;0.80;;;;;;;29.76;30.29;99464.05;1741661;82;21005;-42
2022/07/03 13:35:32;;;;;;;;;;;;;;;29.85;29.99;99457.89;1744329;82;21047;-42
2022/07/03 13:37:58;;;;;;;1.82;1.02;;;;;;;29.94;30.30;99453.11;1741790;82;20138;-41
2022/07/03 13:40:25;;;;;;;0.93;0.90;;;;;;;30.00;30.13;99449.06;1741879;82;21007;-41
2022/07/03 13:42:50;;;;;;;1.07;0.90;;;;;;;30.14;30.19;99451.77;1741850;82;21465;-43
2022/07/03 13:45:17;;;;;;;1.07;0.70;;;;;;;30.20;30.20;99450.42;1746176;82;21051;-43
2022/07/03 13:47:43;;;;;;;0.70;0.70;;;;;;;30.26;30.49;99450.11;1749782;82;21043;-42
2022/07/03 13:50:09;;;;;;;1.07;0.70;;;;;;;30.32;30.55;99451.97;1749786;82;21284;-43
2022/07/03 13:52:36;;;;;;;4.67;1.20;;;;;;;30.29;30.25;99452.41;1749656;82;21151;-43
2022/07/03 13:55:04;;;;;;;0.90;0.80;;;;;;;30.20;30.56;99443.64;1749687;82;21007;-42
2022/07/03 13:57:31;;;;;;;1.37;0.90;;;;;;;30.18;30.29;99448.95;1749539;82;21015;-41
2022/07/03 13:59:57;;;;;;;1.95;1.10;;;;;;;30.00;30.18;99445.53;1749545;82;21042;-41
2022/07/03 14:02:23;;;;;;;0.87;0.80;;;;;;;29.93;30.23;99452.81;1749788;82;21003;-43
2022/07/03 14:04:48;;;;;;;1.37;1.03;;;;;;;29.97;30.37;99444.58;1749728;82;20999;-44
2022/07/03 14:07:14;;;;;;;3.37;0.93;;;;;;;29.92;30.25;99438.41;1749978;82;20983;-40
2022/07/03 14:09:40;;;;;;;1.50;1.20;;;;;;;29.88;30.20;99432.27;1749787;82;21011;-41
2022/07/03 14:12:06;;;;;;;2.30;0.80;;;;;;;29.76;30.28;99427.46;1749804;82;21007;-42
2022/07/03 14:14:32;;;;;;;2.25;0.90;;;;;;;29.72;30.37;99427.50;1749669;82;21011;-42
2022/07/03 14:16:58;;;;;;;1.40;0.70;;;;;;;29.38;30.46;99433.89;1749794;82;21050;-42
2022/07/03 14:19:23;;;;;;;1.40;0.70;;;;;;;29.38;30.46;99433.89;1749738;82;20999;-40
2022/07/03 14:21:49;;;;;;;1.47;0.97;;;;;;;29.44;30.93;99427.14;1749728;82;20999;-42
2022/07/03 14:24:15;;;;;;;2.52;0.90;;;;;;;29.46;31.17;99426.41;1749871;82;20999;-41
2022/07/03 14:34:52;;;;;;;1.02;0.93;;;;;;;30.08;30.66;99420.90;1749594;82;20987;-42
2022/07/03 14:37:18;;;;;;;4.35;1.10;;;;;;;30.13;30.65;99419.76;1749789;82;21071;-42
2022/07/03 14:39:48;;;;;;;1.37;0.57;;;;;;;30.13;29.90;99423.83;1748461;82;20980;-40
2022/07/03 14:42:16;;;;;;;1.00;0.80;;;;;;;30.07;30.54;99424.67;1736444;82;21721;-41
2022/07/03 14:44:41;;;;;;;2.17;0.90;;;;;;;30.11;30.62;99423.70;1716345;83;21154;-41
2022/07/03 14:47:07;;;;;;;0.72;0.62;;;;;;;30.05;30.75;99412.67;1707438;83;21521;-41
2022/07/03 14:49:33;;;;;;;1.17;0.80;;;;;;;30.03;30.39;99413.41;1707704;84;21604;-42